Time;durP1;ratioP1;P1;durP2;ratioP2;P2;SDS_P1;SDS_P2;PMS_P1;PMS_P2;Temp;Humidity;BMP_temperature;BMP_pressure;BME280_temperature;BME280_humidity;BME280_pressure;Samples;Min_cycle;Max_cycle;Signal;HPM_P1;HPM_P2
2021/04/17 00:01:52;;;;;;;8.15;4.47;;;;;;;5.19;67.88;101197.25;5017883;28;20058;-71
2021/04/17 00:04:19;;;;;;;6.75;4.60;;;;;;;5.13;67.03;101192.97;5016485;28;20119;-69
2021/04/17 00:06:46;;;;;;;11.07;4.25;;;;;;;5.18;66.88;101196.41;5017638;28;20062;-69
2021/04/17 00:09:18;;;;;;;8.48;4.18;;;;;;;5.21;66.10;101195.44;5016724;28;20054;-69
2021/04/17 00:11:46;;;;;;;6.63;4.07;;;;;;;5.22;66.74;101192.75;5016483;28;20053;-71
2021/04/17 00:14:16;;;;;;;7.97;4.07;;;;;;;5.21;66.67;101198.97;5017439;28;20060;-71
2021/04/17 00:16:43;;;;;;;9.85;4.40;;;;;;;5.14;66.56;101186.78;5017478;28;20053;-71
2021/04/17 00:19:09;;;;;;;12.32;4.90;;;;;;;5.18;66.76;101201.69;5015802;28;20058;-69
2021/04/17 00:21:36;;;;;;;13.43;4.75;;;;;;;5.25;66.70;101197.13;5017133;28;20053;-71
2021/04/17 00:24:04;;;;;;;9.82;5.45;;;;;;;5.11;67.19;101202.69;5017249;28;20046;-70
2021/04/17 00:26:30;;;;;;;6.68;4.18;;;;;;;5.00;68.36;101197.63;5015880;28;20050;-71
2021/04/17 00:28:58;;;;;;;7.25;4.85;;;;;;;4.99;68.07;101194.16;5017037;28;20046;-71
2021/04/17 00:31:24;;;;;;;7.82;4.68;;;;;;;4.92;68.79;101203.13;5016964;28;20050;-70
2021/04/17 00:33:50;;;;;;;8.10;4.45;;;;;;;4.90;68.70;101202.25;5016755;28;20081;-69
2021/04/17 00:36:16;;;;;;;9.00;5.13;;;;;;;4.79;69.23;101204.25;5016899;28;20062;-71
2021/04/17 00:38:42;;;;;;;8.52;4.35;;;;;;;4.81;68.80;101200.69;5016916;28;20050;-71
2021/04/17 00:41:09;;;;;;;8.77;4.55;;;;;;;4.74;70.30;101201.72;5017043;28;20056;-69
2021/04/17 00:43:36;;;;;;;8.75;5.00;;;;;;;4.72;70.42;101193.81;5016843;28;20049;-72
2021/04/17 00:46:02;;;;;;;9.68;4.45;;;;;;;4.49;70.82;101188.97;5015654;28;20065;-69
2021/04/17 00:48:29;;;;;;;7.45;4.03;;;;;;;4.44;70.76;101194.34;5015521;28;20081;-70
2021/04/17 00:50:56;;;;;;;8.63;4.90;;;;;;;4.39;70.83;101200.59;5031725;28;20128;-71
2021/04/17 00:53:22;;;;;;;7.95;4.70;;;;;;;4.30;71.12;101201.66;5016800;28;20061;-71
2021/04/17 00:55:49;;;;;;;9.98;4.72;;;;;;;4.27;71.42;101199.06;5016635;28;20050;-71
2021/04/17 00:58:15;;;;;;;8.32;4.85;;;;;;;4.19;71.44;101193.91;5016616;28;20050;-70
2021/04/17 01:00:41;;;;;;;8.30;4.97;;;;;;;4.16;71.59;101188.69;5016237;28;20088;-71
2021/04/17 01:03:18;;;;;;;7.40;4.03;;;;;;;4.07;71.75;101187.06;5016357;28;20516;-70
2021/04/17 01:05:47;;;;;;;11.20;5.35;;;;;;;4.06;72.17;101185.31;5016587;28;20439;-69
2021/04/17 01:08:44;;;;;;;6.45;4.53;;;;;;;4.01;72.51;101189.81;5015263;28;20048;-71
2021/04/17 01:11:17;;;;;;;9.45;4.60;;;;;;;3.97;72.06;101178.41;5016412;28;20084;-71
2021/04/17 01:13:44;;;;;;;10.55;4.85;;;;;;;4.09;72.20;101187.94;5016328;28;20077;-71
2021/04/17 01:16:11;;;;;;;8.13;4.32;;;;;;;3.98;72.30;101195.16;5031606;28;20053;-68
2021/04/17 01:18:39;;;;;;;9.13;5.00;;;;;;;3.85;72.71;101178.63;5015034;28;20058;-69
2021/04/17 01:21:06;;;;;;;10.70;4.55;;;;;;;3.83;72.95;101186.59;5016181;28;20055;-70
2021/04/17 01:23:37;;;;;;;8.98;5.30;;;;;;;3.83;72.78;101191.00;5016086;28;20061;-70
2021/04/17 01:26:11;;;;;;;8.15;4.80;;;;;;;3.73;73.24;101195.53;5015832;28;20381;-69
2021/04/17 01:28:42;;;;;;;10.05;5.00;;;;;;;3.65;73.25;101193.91;5015064;28;20053;-69
2021/04/17 01:31:12;;;;;;;7.78;4.20;;;;;;;3.58;73.59;101189.63;5016751;28;20462;-70
2021/04/17 01:33:42;;;;;;;9.07;4.60;;;;;;;3.51;73.50;101185.31;5016706;28;20060;-71
2021/04/17 01:36:10;;;;;;;8.60;5.10;;;;;;;3.51;73.53;101195.88;5016482;28;20061;-69
2021/04/17 01:38:47;;;;;;;8.20;4.70;;;;;;;3.44;73.95;101186.31;5016150;28;20330;-70
2021/04/17 01:41:19;;;;;;;9.18;4.43;;;;;;;3.47;74.25;101188.88;5015717;28;20050;-70
2021/04/17 01:43:51;;;;;;;8.07;5.18;;;;;;;3.28;73.85;101178.63;5015610;28;20325;-70
2021/04/17 01:46:26;;;;;;;11.02;5.25;;;;;;;3.38;74.33;101188.13;5015661;28;20367;-71
2021/04/17 01:48:58;;;;;;;10.50;5.22;;;;;;;3.31;74.66;101189.13;5016076;28;20049;-71
2021/04/17 01:51:25;;;;;;;11.63;4.95;;;;;;;3.25;74.84;101183.94;5015594;28;20533;-71
2021/04/17 01:53:52;;;;;;;13.98;5.25;;;;;;;3.21;74.57;101187.53;5015589;28;20076;-71
2021/04/17 01:56:21;;;;;;;10.40;5.70;;;;;;;3.21;74.63;101188.38;5015514;28;20096;-68
2021/04/17 01:58:50;;;;;;;10.48;5.05;;;;;;;3.27;74.76;101187.41;5015340;28;20053;-70
2021/04/17 02:01:20;;;;;;;10.32;5.53;;;;;;;3.17;74.94;101185.81;5015241;28;20057;-70
2021/04/17 02:03:48;;;;;;;11.98;5.47;;;;;;;3.06;75.57;101184.16;5015701;28;20056;-71
2021/04/17 02:06:14;;;;;;;8.80;4.88;;;;;;;3.06;75.59;101193.88;5010978;28;20074;-71
2021/04/17 02:08:41;;;;;;;10.20;5.18;;;;;;;2.98;76.19;101186.03;4995771;28;20054;-68
2021/04/17 02:11:08;;;;;;;8.45;5.13;;;;;;;2.98;75.80;101191.31;4995664;28;20047;-69
2021/04/17 02:13:35;;;;;;;8.82;5.78;;;;;;;2.96;75.90;101188.69;4995784;28;20101;-69
2021/04/17 02:16:07;;;;;;;10.85;5.57;;;;;;;2.84;76.02;101187.09;4995065;28;20413;-71
2021/04/17 02:18:38;;;;;;;8.43;5.10;;;;;;;2.85;76.43;101188.81;4995490;28;20467;-70
2021/04/17 02:21:08;;;;;;;9.52;5.47;;;;;;;2.88;76.04;101189.72;4995391;28;20416;-69
2021/04/17 02:23:36;;;;;;;10.38;5.65;;;;;;;2.84;76.23;101189.72;4995843;28;20382;-72
2021/04/17 02:26:04;;;;;;;11.10;5.90;;;;;;;2.82;76.40;101183.59;4994825;28;20134;-71
2021/04/17 02:28:32;;;;;;;8.73;5.70;;;;;;;2.83;76.12;101181.84;4995887;28;20085;-71
2021/04/17 02:31:02;;;;;;;14.48;6.43;;;;;;;2.71;76.36;101172.31;4996065;28;20056;-70
2021/04/17 02:33:30;;;;;;;9.68;5.05;;;;;;;2.80;76.53;101177.50;4995711;28;20058;-71
2021/04/17 02:35:56;;;;;;;17.02;5.90;;;;;;;2.67;76.38;101167.97;4995340;28;20090;-71
2021/04/17 02:38:23;;;;;;;11.02;5.40;;;;;;;2.64;77.31;101173.28;4995604;28;20124;-71
2021/04/17 02:40:50;;;;;;;9.55;5.20;;;;;;;2.62;76.89;101175.91;4995306;28;20054;-71
2021/04/17 02:43:16;;;;;;;13.02;6.05;;;;;;;2.64;76.85;101175.91;4995553;28;20061;-73
2021/04/17 02:45:42;;;;;;;12.32;5.65;;;;;;;2.51;77.31;101173.41;4995581;28;20051;-68
2021/04/17 02:48:09;;;;;;;8.88;5.65;;;;;;;2.53;77.24;101163.75;4995171;28;20058;-70
2021/04/17 02:50:35;;;;;;;11.55;6.25;;;;;;;2.51;77.30;101176.03;4998647;28;20050;-71
2021/04/17 02:53:02;;;;;;;13.55;6.75;;;;;;;2.55;77.29;101176.88;4999592;28;20050;-71
2021/04/17 02:55:28;;;;;;;12.48;6.43;;;;;;;2.46;77.37;101180.50;4999250;28;20116;-68
2021/04/17 02:57:55;;;;;;;12.10;6.15;;;;;;;2.52;77.31;101182.19;4999484;28;20153;-71
2021/04/17 03:00:25;;;;;;;13.93;5.85;;;;;;;2.38;77.40;101166.53;4999662;28;20348;-71
2021/04/17 03:02:51;;;;;;;10.85;6.22;;;;;;;2.43;77.76;101184.06;4998728;28;20452;-69
2021/04/17 03:05:19;;;;;;;10.02;6.13;;;;;;;2.41;77.86;101180.53;5006178;28;20061;-70
2021/04/17 03:07:45;;;;;;;9.70;5.55;;;;;;;2.37;77.63;101184.13;5019181;28;20104;-69
2021/04/17 03:10:12;;;;;;;12.27;6.03;;;;;;;2.36;78.16;101186.75;5018843;28;20068;-71
2021/04/17 03:12:38;;;;;;;12.30;6.32;;;;;;;2.34;78.07;101181.50;5018784;28;20053;-69
2021/04/17 03:15:06;;;;;;;10.20;6.03;;;;;;;2.26;78.12;101178.97;5018672;28;20065;-69
2021/04/17 03:17:33;;;;;;;8.27;6.05;;;;;;;2.27;77.87;101175.44;5018269;28;20058;-68
2021/04/17 03:19:59;;;;;;;12.85;6.15;;;;;;;2.30;78.22;101170.13;5018730;28;20351;-68
2021/04/17 03:22:26;;;;;;;12.55;6.80;;;;;;;2.30;78.18;101175.38;5017147;28;20442;-69
2021/04/17 03:24:53;;;;;;;11.18;5.60;;;;;;;2.16;77.99;101156.22;5018559;28;20058;-70
2021/04/17 03:27:20;;;;;;;12.18;6.47;;;;;;;2.19;78.35;101179.91;5018630;28;20115;-71
2021/04/17 03:29:46;;;;;;;9.77;6.22;;;;;;;2.16;78.22;101178.16;5018436;28;20050;-71
2021/04/17 03:32:12;;;;;;;11.38;6.15;;;;;;;2.11;78.66;101184.34;5018114;28;20494;-72
2021/04/17 03:34:38;;;;;;;11.82;6.68;;;;;;;1.99;78.72;101182.72;5017973;28;20185;-72
2021/04/17 03:37:04;;;;;;;8.27;6.05;;;;;;;2.02;78.83;101186.19;5017807;28;20054;-72
2021/04/17 03:39:30;;;;;;;12.50;6.35;;;;;;;2.00;78.75;101181.81;5018218;28;20057;-72
2021/04/17 03:41:56;;;;;;;11.38;7.20;;;;;;;1.95;78.89;101176.59;5018102;28;20049;-73
2021/04/17 03:44:23;;;;;;;12.20;6.60;;;;;;;2.00;79.06;101184.44;5017731;28;20492;-71
2021/04/17 03:46:49;;;;;;;10.52;6.95;;;;;;;1.89;79.21;101174.91;5018185;28;20054;-70
2021/04/17 03:49:15;;;;;;;13.57;7.13;;;;;;;1.89;79.89;101190.69;5017680;28;20077;-70
2021/04/17 03:51:41;;;;;;;10.32;6.85;;;;;;;1.86;79.59;101188.06;5017809;28;20054;-70
2021/04/17 03:54:07;;;;;;;11.35;7.07;;;;;;;1.86;79.51;101190.69;5017672;28;20053;-72
2021/04/17 03:56:33;;;;;;;12.48;7.35;;;;;;;1.86;79.61;101185.44;5017088;28;20054;-70
2021/04/17 03:59:00;;;;;;;16.60;6.65;;;;;;;1.86;79.84;101192.47;5017903;28;20046;-69
2021/04/17 04:01:26;;;;;;;16.17;7.13;;;;;;;1.84;79.46;101183.69;5016406;28;20054;-69
2021/04/17 04:03:52;;;;;;;14.55;7.32;;;;;;;1.84;79.54;101195.13;5017602;28;20053;-70
2021/04/17 04:06:19;;;;;;;13.77;6.50;;;;;;;1.78;80.20;101194.31;5017864;28;20045;-70
2021/04/17 04:08:45;;;;;;;12.75;7.20;;;;;;;1.78;79.92;101204.84;5017689;28;20049;-72
2021/04/17 04:11:11;;;;;;;12.25;6.97;;;;;;;1.74;79.84;101196.94;5017523;28;20054;-71
2021/04/17 04:13:37;;;;;;;12.20;7.82;;;;;;;1.73;80.12;101192.56;5017427;28;20046;-71
2021/04/17 04:16:04;;;;;;;12.23;7.25;;;;;;;1.57;79.91;101175.16;5017337;28;20145;-69
2021/04/17 04:18:30;;;;;;;11.00;6.90;;;;;;;1.62;80.35;101195.28;5017138;28;20401;-69
2021/04/17 04:20:57;;;;;;;13.25;7.00;;;;;;;1.67;80.50;101210.16;5016275;28;20521;-69
2021/04/17 04:23:23;;;;;;;11.73;7.03;;;;;;;1.64;80.54;101200.56;5017484;28;20050;-72
2021/04/17 04:25:49;;;;;;;11.68;7.40;;;;;;;1.59;80.40;101205.81;5016387;28;20156;-69
2021/04/17 04:28:15;;;;;;;14.27;7.20;;;;;;;1.59;80.36;101211.09;5017145;28;20062;-70
2021/04/17 04:30:42;;;;;;;12.15;7.43;;;;;;;1.56;80.64;101215.50;5016893;28;20100;-69
2021/04/17 04:33:08;;;;;;;10.18;6.70;;;;;;;1.48;80.39;101198.00;5015769;28;20049;-69
2021/04/17 04:35:34;;;;;;;13.73;7.70;;;;;;;1.52;80.69;101219.03;5016893;28;20060;-71
2021/04/17 04:38:00;;;;;;;17.70;7.43;;;;;;;1.55;80.94;101219.91;5017223;28;20058;-69
2021/04/17 04:40:27;;;;;;;10.27;7.15;;;;;;;1.49;80.74;101218.16;5017334;28;20049;-69
2021/04/17 04:42:53;;;;;;;11.55;7.60;;;;;;;1.43;81.01;101220.84;5016980;28;20120;-70
2021/04/17 04:45:19;;;;;;;16.00;7.78;;;;;;;1.32;80.59;101196.34;5015671;28;20494;-71
2021/04/17 04:47:45;;;;;;;12.02;7.47;;;;;;;1.51;81.03;101225.19;5016685;28;20050;-70
2021/04/17 04:50:13;;;;;;;15.10;7.57;;;;;;;1.30;80.65;101188.47;5016389;28;20077;-71
2021/04/17 04:52:39;;;;;;;19.58;8.63;;;;;;;1.29;81.70;101202.50;5016717;28;20053;-71
2021/04/17 04:55:06;;;;;;;15.30;7.90;;;;;;;1.39;81.75;101226.13;5016560;28;20116;-70
2021/04/17 04:57:33;;;;;;;15.13;7.80;;;;;;;1.39;81.16;101224.38;5016730;28;20116;-69
2021/04/17 04:59:59;;;;;;;13.32;7.82;;;;;;;1.36;80.97;101213.84;5016246;28;20049;-72
2021/04/17 05:02:25;;;;;;;13.70;7.70;;;;;;;1.43;81.30;101226.13;5016449;28;20414;-70
2021/04/17 05:04:52;;;;;;;12.57;7.50;;;;;;;1.39;81.48;101216.47;5016212;28;20049;-69
2021/04/17 05:07:18;;;;;;;13.68;7.40;;;;;;;1.43;81.63;101226.13;5016607;28;20057;-69
2021/04/17 05:09:44;;;;;;;15.15;8.65;;;;;;;1.37;81.63;101220.88;5016489;28;20050;-72
2021/04/17 05:12:10;;;;;;;14.57;8.25;;;;;;;1.39;82.02;101221.75;5015860;28;20057;-70
2021/04/17 05:14:37;;;;;;;13.80;8.00;;;;;;;1.42;82.14;101216.44;5016218;28;20057;-71
2021/04/17 05:17:03;;;;;;;14.68;8.60;;;;;;;1.45;82.14;101224.34;5016256;28;20108;-70
2021/04/17 05:19:29;;;;;;;15.63;7.65;;;;;;;1.45;82.03;101223.44;5015885;28;20084;-70
2021/04/17 05:21:55;;;;;;;13.02;8.10;;;;;;;1.51;82.04;101220.78;5015995;28;20057;-71
2021/04/17 05:24:22;;;;;;;23.25;8.93;;;;;;;1.50;81.89;101219.03;5015498;28;20042;-69
2021/04/17 05:26:48;;;;;;;18.77;8.80;;;;;;;1.60;81.59;101233.03;5014687;28;20045;-68
2021/04/17 05:29:14;;;;;;;17.05;9.00;;;;;;;1.66;81.55;101229.47;5015785;28;20056;-69
2021/04/17 05:31:40;;;;;;;17.92;8.85;;;;;;;1.69;81.57;101237.34;5015748;28;20046;-71
2021/04/17 05:34:07;;;;;;;12.18;7.47;;;;;;;1.71;81.70;101225.94;5015869;28;20136;-70
2021/04/17 05:36:35;;;;;;;14.63;7.72;;;;;;;1.69;81.73;101222.41;5014878;28;20050;-70
2021/04/17 05:39:03;;;;;;;15.15;9.00;;;;;;;1.70;81.19;101213.63;5015703;28;20431;-70
2021/04/17 05:41:29;;;;;;;12.35;8.05;;;;;;;1.85;81.17;101227.59;5014858;28;20058;-69
2021/04/17 05:43:56;;;;;;;14.35;8.73;;;;;;;1.86;81.49;101224.94;5015723;28;20077;-72
2021/04/17 05:46:22;;;;;;;19.27;9.20;;;;;;;1.93;81.27;101235.41;5014885;28;20062;-69
2021/04/17 05:48:48;;;;;;;17.13;8.45;;;;;;;1.98;81.15;101223.09;5016161;28;20084;-71
2021/04/17 05:51:14;;;;;;;11.95;7.88;;;;;;;2.05;81.37;101230.06;5015019;28;20053;-70
2021/04/17 05:53:41;;;;;;;12.07;7.88;;;;;;;2.17;81.26;101229.06;5015560;28;20431;-70
2021/04/17 05:56:08;;;;;;;18.88;8.95;;;;;;;2.40;80.23;101225.38;5015665;28;20053;-73
2021/04/17 05:58:35;;;;;;;17.98;8.57;;;;;;;2.48;79.57;101214.72;5015689;28;20069;-71
2021/04/17 06:01:02;;;;;;;14.00;8.25;;;;;;;2.48;79.94;101209.47;5015370;28;20431;-75
2021/04/17 06:03:28;;;;;;;15.13;7.85;;;;;;;2.63;79.35;101222.50;5015789;28;20065;-71
2021/04/17 06:05:55;;;;;;;16.48;10.15;;;;;;;2.70;79.20;101223.28;5014587;28;20069;-71
2021/04/17 06:08:21;;;;;;;16.23;8.32;;;;;;;2.80;78.97;101219.69;5015532;28;20351;-70
2021/04/17 06:10:47;;;;;;;11.75;7.20;;;;;;;2.79;78.49;101225.81;5014433;28;20352;-70
2021/04/17 06:13:13;;;;;;;11.52;7.32;;;;;;;2.90;78.13;101227.47;5030934;28;20096;-70
2021/04/17 06:15:39;;;;;;;10.68;7.03;;;;;;;3.05;77.97;101234.31;5015606;28;20057;-70
2021/04/17 06:18:06;;;;;;;13.88;7.00;;;;;;;3.07;77.64;101229.91;5015486;28;20069;-70
2021/04/17 06:20:32;;;;;;;15.35;7.55;;;;;;;3.18;76.81;101229.75;5014353;28;20053;-70
2021/04/17 06:22:58;;;;;;;18.23;7.93;;;;;;;3.20;76.61;101233.25;5014110;28;20324;-69
2021/04/17 06:25:25;;;;;;;16.73;7.65;;;;;;;3.19;76.49;101220.94;5012545;28;20054;-71
2021/04/17 06:27:51;;;;;;;17.20;8.45;;;;;;;3.29;76.28;101233.13;5014294;28;20107;-70
2021/04/17 06:30:17;;;;;;;14.13;7.20;;;;;;;3.32;76.49;101232.22;5014118;28;20042;-72
2021/04/17 06:32:47;;;;;;;16.07;7.60;;;;;;;3.40;76.43;101231.19;5014507;28;20049;-72
2021/04/17 06:35:13;;;;;;;18.55;7.85;;;;;;;3.44;75.78;101226.78;5018267;28;20290;-70
2021/04/17 06:37:40;;;;;;;16.88;7.55;;;;;;;3.49;75.91;101230.22;5013362;28;20489;-71
2021/04/17 06:40:06;;;;;;;15.20;8.55;;;;;;;3.46;74.91;101216.19;5028043;28;20061;-71
2021/04/17 06:42:35;;;;;;;16.17;7.88;;;;;;;3.53;75.20;101234.56;5034190;28;20366;-72
2021/04/17 06:45:03;;;;;;;15.55;6.97;;;;;;;3.49;75.09;101224.06;5033996;28;20558;-70
2021/04/17 06:47:29;;;;;;;12.13;7.70;;;;;;;3.56;75.36;101228.38;5033946;28;20355;-69
2021/04/17 06:49:57;;;;;;;26.08;8.05;;;;;;;3.61;75.22;101231.81;5035154;28;20100;-71
2021/04/17 06:52:24;;;;;;;10.25;6.95;;;;;;;3.62;75.47;101223.00;5038069;28;20059;-70
2021/04/17 06:54:51;;;;;;;13.60;7.22;;;;;;;3.66;74.59;101221.19;5033788;28;20080;-73
2021/04/17 06:57:19;;;;;;;14.82;7.45;;;;;;;3.79;74.23;101221.84;5034068;28;20119;-71
2021/04/17 06:59:45;;;;;;;12.88;7.72;;;;;;;3.90;74.04;101225.22;5034021;28;20621;-71
2021/04/17 07:02:16;;;;;;;12.68;6.70;;;;;;;3.96;74.02;101224.22;5033691;28;20462;-70
2021/04/17 07:04:43;;;;;;;11.20;7.80;;;;;;;4.07;73.85;101230.22;5031768;28;20390;-71
2021/04/17 07:07:10;;;;;;;15.57;8.05;;;;;;;4.12;73.43;101238.06;5013873;28;20057;-71
2021/04/17 07:09:37;;;;;;;20.25;7.63;;;;;;;4.18;73.48;101231.78;5004671;28;20042;-76
2021/04/17 07:12:04;;;;;;;10.40;7.25;;;;;;;4.38;72.72;101231.47;5006222;28;20070;-70
2021/04/17 07:14:46;;;;;;;14.10;6.63;;;;;;;4.46;72.23;101229.53;4994223;28;20050;-71
2021/04/17 07:17:13;;;;;;;16.95;7.65;;;;;;;4.45;71.68;101216.34;5010442;28;20466;-70
2021/04/17 07:19:42;;;;;;;11.10;7.10;;;;;;;4.64;70.44;101238.03;4980911;28;634306;-73
2021/04/17 07:22:33;;;;;;;15.00;7.47;;;;;;;4.82;70.20;101222.69;4994810;28;20054;-70
2021/04/17 07:25:06;;;;;;;10.55;6.30;;;;;;;4.86;70.39;101227.03;4995474;28;20050;-71
2021/04/17 07:27:45;;;;;;;11.93;7.45;;;;;;;5.01;67.83;101223.22;4995430;28;20057;-70
2021/04/17 07:30:14;;;;;;;13.55;7.07;;;;;;;5.00;68.58;101230.28;4995304;28;20070;-71
2021/04/17 07:33:09;;;;;;;11.43;7.03;;;;;;;5.13;68.19;101220.28;4995165;28;20046;-72
2021/04/17 07:35:43;;;;;;;12.18;6.47;;;;;;;5.17;66.79;101215.81;5011554;28;20376;-69
2021/04/17 07:38:18;;;;;;;16.95;7.60;;;;;;;5.21;67.58;101221.91;4998841;28;20058;-71
2021/04/17 07:41:04;;;;;;;18.08;7.78;;;;;;;5.23;67.71;101220.97;4998657;28;20046;-70
2021/04/17 07:44:00;;;;;;;16.45;6.45;;;;;;;5.30;67.47;101221.72;5010246;28;20455;-69
2021/04/17 07:46:41;;;;;;;13.35;6.65;;;;;;;5.36;68.03;101224.25;5008385;28;20479;-68
2021/04/17 07:49:13;;;;;;;14.23;6.38;;;;;;;5.42;66.91;101223.22;5010671;28;20085;-68
2021/04/17 07:52:12;;;;;;;12.63;6.05;;;;;;;5.44;66.54;101224.03;4998573;28;20084;-71
2021/04/17 07:54:51;;;;;;;13.02;6.28;;;;;;;5.52;65.79;101226.53;4997792;28;20054;-69
2021/04/17 07:57:17;;;;;;;12.65;6.53;;;;;;;5.51;65.96;101225.66;4998005;28;20097;-68
2021/04/17 07:59:44;;;;;;;14.25;6.00;;;;;;;5.62;66.29;101225.41;4997579;28;20371;-69
2021/04/17 08:02:13;;;;;;;13.27;6.85;;;;;;;5.63;65.62;101223.63;4996385;28;20066;-70
2021/04/17 08:04:45;;;;;;;1065.70;126.30;;;;;;;5.77;66.07;101216.22;5013152;28;20058;-69
2021/04/17 08:07:12;;;;;;;16.05;6.75;;;;;;;5.77;64.48;101221.53;5016959;28;20061;-69
2021/04/17 08:09:38;;;;;;;15.48;6.28;;;;;;;5.80;64.86;101221.47;5017109;28;20054;-69
2021/04/17 08:12:05;;;;;;;515.45;64.53;;;;;;;5.85;64.88;101219.56;5015904;28;20058;-69
2021/04/17 08:14:32;;;;;;;14.38;6.22;;;;;;;6.00;63.36;101222.78;5017340;28;20077;-69
2021/04/17 08:16:58;;;;;;;14.70;5.50;;;;;;;6.07;63.35;101216.44;5017533;28;20116;-70
2021/04/17 08:19:24;;;;;;;12.57;5.80;;;;;;;6.32;63.39;101220.22;5016847;28;20049;-69
2021/04/17 08:21:52;;;;;;;14.32;6.68;;;;;;;6.37;62.42;101226.25;5016567;28;20053;-69
2021/04/17 08:24:27;;;;;;;14.38;6.18;;;;;;;6.52;62.06;101211.72;5017650;28;20100;-69
2021/04/17 08:26:55;;;;;;;11.90;5.80;;;;;;;6.50;62.48;101213.56;5017712;28;20432;-69
2021/04/17 08:29:49;;;;;;;13.68;5.55;;;;;;;6.49;62.26;101219.78;5016546;28;20080;-69
2021/04/17 08:32:29;;;;;;;14.57;6.70;;;;;;;6.58;62.66;101211.56;5017367;28;20061;-69
2021/04/17 08:35:00;;;;;;;11.48;5.70;;;;;;;6.55;62.13;101206.38;5017153;28;20061;-70
2021/04/17 08:37:26;;;;;;;14.27;5.47;;;;;;;6.62;62.83;101207.94;5017206;28;20395;-70
2021/04/17 08:39:54;;;;;;;13.48;6.18;;;;;;;6.73;61.93;101207.63;5016486;28;20061;-69
2021/04/17 08:42:42;;;;;;;10.20;5.22;;;;;;;6.86;60.89;101205.47;5017168;28;20058;-70
2021/04/17 08:45:17;;;;;;;22.42;6.78;;;;;;;6.97;60.82;101209.63;5016759;28;20050;-70
2021/04/17 08:47:47;;;;;;;10.25;5.70;;;;;;;7.05;60.86;101194.34;5016227;28;20049;-70
2021/04/17 08:50:34;;;;;;;14.57;5.70;;;;;;;7.33;59.78;101202.34;5016937;28;20092;-69
2021/04/17 08:53:11;;;;;;;14.43;4.68;;;;;;;7.43;56.09;101200.28;5016894;28;20056;-69
2021/04/17 08:55:37;;;;;;;11.23;5.72;;;;;;;7.55;57.45;101201.69;5016741;28;20343;-69
2021/04/17 08:58:14;;;;;;;13.63;5.60;;;;;;;7.67;57.80;101204.88;5017322;28;20108;-69
2021/04/17 09:00:53;;;;;;;17.20;5.10;;;;;;;7.67;57.50;101211.03;5017046;28;20089;-69
2021/04/17 09:03:39;;;;;;;13.93;5.75;;;;;;;7.62;57.20;101215.63;5017008;28;20435;-68
2021/04/17 09:06:08;;;;;;;9.50;5.35;;;;;;;7.65;57.70;101212.88;5016660;28;20364;-69
2021/04/17 09:08:38;;;;;;;15.02;5.00;;;;;;;7.67;57.68;101203.06;5016450;28;20049;-69
2021/04/17 09:11:34;;;;;;;10.15;4.40;;;;;;;7.86;55.13;101200.66;5016653;28;20491;-69
2021/04/17 09:14:02;;;;;;;12.07;4.47;;;;;;;8.03;54.72;101191.28;5016625;28;20387;-71
2021/04/17 09:16:39;;;;;;;12.30;4.65;;;;;;;8.18;54.32;101200.53;5015702;28;20104;-70
2021/04/17 09:19:06;;;;;;;13.00;4.68;;;;;;;8.23;54.14;101197.72;5016207;28;20069;-70
2021/04/17 09:21:34;;;;;;;11.35;4.90;;;;;;;8.18;54.50;101186.34;5016257;28;20482;-71
2021/04/17 09:24:01;;;;;;;10.48;5.78;;;;;;;8.28;54.89;101198.41;5016375;28;20120;-70
2021/04/17 09:26:34;;;;;;;11.02;5.78;;;;;;;8.33;55.24;101193.78;5016327;28;20054;-70
2021/04/17 09:29:17;;;;;;;9.05;4.38;;;;;;;8.46;54.05;101190.69;5016289;28;20058;-70
2021/04/17 09:31:45;;;;;;;9.07;4.20;;;;;;;8.55;54.49;101177.09;5016065;28;20057;-70
2021/04/17 09:34:17;;;;;;;8.98;4.63;;;;;;;8.82;53.99;101187.66;5014818;28;20056;-70
2021/04/17 09:36:45;;;;;;;10.27;4.22;;;;;;;9.05;50.85;101178.81;5016073;28;20057;-71
2021/04/17 09:39:27;;;;;;;8.32;3.47;;;;;;;9.30;48.62;101182.31;5015934;28;20431;-71
2021/04/17 09:41:55;;;;;;;9.35;3.78;;;;;;;9.40;47.82;101180.16;5015801;28;20061;-71
2021/04/17 09:44:22;;;;;;;10.00;4.20;;;;;;;9.53;49.26;101184.06;5016305;28;20046;-71
2021/04/17 09:47:05;;;;;;;9.00;3.92;;;;;;;9.54;49.48;101182.28;5016040;28;20054;-70
2021/04/17 09:49:42;;;;;;;8.10;4.85;;;;;;;9.70;48.03;101171.88;5015626;28;20050;-70
2021/04/17 09:52:12;;;;;;;8.45;4.35;;;;;;;9.87;48.32;101166.69;5015702;28;20072;-72
2021/04/17 09:54:38;;;;;;;8.90;4.20;;;;;;;9.86;47.99;101159.63;5016084;28;20049;-71
2021/04/17 09:57:07;;;;;;;7.78;4.57;;;;;;;10.04;47.78;101162.44;5014705;28;20096;-70
2021/04/17 09:59:35;;;;;;;9.23;4.53;;;;;;;9.69;49.29;101159.47;5015449;28;20060;-70
2021/04/17 10:02:02;;;;;;;13.45;5.18;;;;;;;9.70;48.74;101161.19;5015956;28;20383;-72
2021/04/17 10:04:59;;;;;;;12.30;5.05;;;;;;;9.47;49.00;101158.53;5014350;28;20141;-70
2021/04/17 10:07:25;;;;;;;9.38;4.93;;;;;;;9.55;48.62;101152.03;4994993;28;20054;-70
2021/04/17 10:10:03;;;;;;;10.48;4.38;;;;;;;9.52;49.63;101153.00;4995875;28;20053;-70
2021/04/17 10:12:29;;;;;;;11.70;5.40;;;;;;;9.53;49.71;101152.06;4996246;28;20061;-70
2021/04/17 10:15:17;;;;;;;9.02;4.13;;;;;;;9.80;49.17;101151.88;4994977;28;20046;-70
2021/04/17 10:17:44;;;;;;;11.10;5.13;;;;;;;9.73;48.00;101153.94;4996064;28;20101;-72
2021/04/17 10:20:12;;;;;;;6.75;4.32;;;;;;;9.72;48.42;101141.53;4995797;28;20058;-71
2021/04/17 10:22:39;;;;;;;5.57;3.60;;;;;;;9.90;47.60;101145.22;4996008;28;20409;-72
2021/04/17 10:25:08;;;;;;;10.95;4.05;;;;;;;10.15;47.09;101128.16;4996087;28;20162;-70
2021/04/17 10:27:36;;;;;;;6.13;3.47;;;;;;;10.13;46.05;101132.69;4995951;28;20050;-71
2021/04/17 10:30:16;;;;;;;5.78;3.20;;;;;;;9.97;44.30;101123.63;4995920;28;20109;-71
2021/04/17 10:32:46;;;;;;;6.78;3.70;;;;;;;9.98;44.42;101138.69;4996195;28;20112;-70
2021/04/17 10:35:15;;;;;;;7.03;3.17;;;;;;;9.99;43.96;101125.31;4996037;28;20519;-72
2021/04/17 10:37:44;;;;;;;8.10;3.53;;;;;;;10.32;44.50;101127.44;4995579;28;20061;-71
2021/04/17 10:40:13;;;;;;;4.18;3.25;;;;;;;10.52;42.25;101117.66;5012504;28;20375;-75
2021/04/17 10:42:49;;;;;;;969.08;131.70;;;;;;;10.79;42.12;101103.13;5014762;28;20119;-74
2021/04/17 10:45:21;;;;;;;83.72;12.20;;;;;;;10.97;42.00;101106.75;5010652;28;20057;-71
2021/04/17 10:48:11;;;;;;;1855.45;248.57;;;;;;;11.26;43.17;101097.31;5012262;28;20046;-72
2021/04/17 10:50:39;;;;;;;;;;;;;;;11.61;41.66;101104.50;5029562;28;20057;-70
2021/04/17 10:53:08;;;;;;;8.77;3.13;;;;;;;12.00;40.43;101097.22;5010874;28;20016;-71
2021/04/17 10:55:41;;;;;;;8.40;3.08;;;;;;;12.04;41.40;101082.75;5013841;28;20072;-71
2021/04/17 10:58:30;;;;;;;12.88;3.63;;;;;;;12.27;40.52;101087.84;5012523;28;20050;-71
2021/04/17 11:01:00;;;;;;;6.65;3.13;;;;;;;12.42;39.73;101081.66;5013446;28;20070;-69
2021/04/17 11:03:31;;;;;;;9.15;3.08;;;;;;;12.41;39.56;101073.75;5012142;28;20100;-69
2021/04/17 11:06:24;;;;;;;6.15;3.30;;;;;;;12.45;40.21;101080.63;5012143;28;20042;-70
2021/04/17 11:09:04;;;;;;;5.55;3.25;;;;;;;12.38;40.11;101074.75;5004656;28;20058;-70
2021/04/17 11:11:30;;;;;;;5.17;3.20;;;;;;;12.26;39.30;101075.41;5015841;28;20054;-70
2021/04/17 11:13:59;;;;;;;6.43;3.38;;;;;;;12.05;39.70;101065.75;5018705;28;20283;-70
2021/04/17 11:16:34;;;;;;;6.93;4.07;;;;;;;11.74;40.70;101063.78;5018211;28;20095;-71
2021/04/17 11:19:01;;;;;;;11.82;3.47;;;;;;;11.73;40.93;101073.63;5016969;28;20375;-71
2021/04/17 11:21:28;;;;;;;8.18;3.47;;;;;;;11.44;41.18;101061.75;5018066;28;20424;-71
2021/04/17 11:24:00;;;;;;;10.80;3.33;;;;;;;11.14;41.33;101055.16;5017957;28;20050;-70
2021/04/17 11:26:29;;;;;;;9.13;3.08;;;;;;;11.58;41.14;101064.56;5012488;28;20431;-70
2021/04/17 11:29:01;;;;;;;7.57;3.50;;;;;;;11.58;41.62;101069.06;5033430;28;20446;-69
2021/04/17 11:31:30;;;;;;;9.23;3.65;;;;;;;11.86;40.08;101059.59;5014505;28;20046;-70
2021/04/17 11:33:59;;;;;;;5.65;3.47;;;;;;;11.49;40.38;101063.22;5018262;28;20046;-70
2021/04/17 11:36:29;;;;;;;10.65;3.72;;;;;;;11.51;40.15;101060.50;5017476;28;20447;-71
2021/04/17 11:38:56;;;;;;;9.90;3.28;;;;;;;12.12;40.90;101052.06;5016771;28;20092;-73